Time;durP1;ratioP1;P1;durP2;ratioP2;P2;SDS_P1;SDS_P2;PMS_P1;PMS_P2;Temp;Humidity;BMP_temperature;BMP_pressure;BME280_temperature;BME280_humidity;BME280_pressure;Samples;Min_cycle;Max_cycle;Signal;HPM_P1;HPM_P2
2023/09/26 00:00:56;;;;;;;1130.40;902.08;;;14.90;99.90;;;;;;4873518;29;19955;-82
2023/09/26 00:03:21;;;;;;;1118.40;892.88;;;14.90;99.90;;;;;;4890613;29;20064;-82
2023/09/26 00:05:48;;;;;;;1187.55;913.58;;;14.90;99.90;;;;;;4890631;29;20047;-82
2023/09/26 00:08:15;;;;;;;1111.15;891.50;;;14.90;99.90;;;;;;4875277;29;20434;-82
2023/09/26 00:10:40;;;;;;;1060.15;865.67;;;14.90;99.90;;;;;;4890009;29;20044;-82
2023/09/26 00:13:06;;;;;;;1009.72;857.08;;;15.00;99.90;;;;;;4875758;29;20587;-82
2023/09/26 00:15:33;;;;;;;975.83;838.50;;;15.00;99.90;;;;;;4889000;29;20096;-83
2023/09/26 00:17:59;;;;;;;967.10;836.60;;;15.00;99.90;;;;;;4892131;29;20049;-82
2023/09/26 00:20:27;;;;;;;991.65;855.78;;;15.00;99.90;;;;;;4887969;29;20151;-82
2023/09/26 00:22:54;;;;;;;1062.28;872.53;;;15.00;99.90;;;;;;4883759;29;20398;-82
2023/09/26 00:25:21;;;;;;;890.28;793.85;;;15.00;99.90;;;;;;4879112;29;20123;-82
2023/09/26 00:27:47;;;;;;;842.20;753.83;;;15.00;99.90;;;;;;4874236;29;20040;-82
2023/09/26 00:30:13;;;;;;;885.10;791.75;;;15.00;99.90;;;;;;4879430;29;20116;-82
2023/09/26 00:32:39;;;;;;;815.38;731.38;;;15.00;99.90;;;;;;4874514;29;20561;-82
2023/09/26 00:35:08;;;;;;;823.58;736.47;;;15.00;99.90;;;;;;4874425;29;20044;-82
2023/09/26 00:37:34;;;;;;;1011.75;854.15;;;15.00;99.90;;;;;;4874346;29;20044;-82
2023/09/26 00:40:00;;;;;;;952.25;828.30;;;15.00;99.90;;;;;;4890330;29;20052;-82
2023/09/26 00:42:26;;;;;;;1084.20;879.15;;;15.00;99.90;;;;;;4874350;29;20526;-82
2023/09/26 00:44:52;;;;;;;1127.03;905.75;;;15.00;99.90;;;;;;4889031;29;20132;-83
2023/09/26 00:47:19;;;;;;;895.92;798.78;;;15.00;99.90;;;;;;4874966;29;20140;-82
2023/09/26 00:49:45;;;;;;;964.70;832.45;;;14.90;99.90;;;;;;4889975;29;20079;-82
2023/09/26 00:52:11;;;;;;;1018.25;857.25;;;14.90;99.90;;;;;;4878645;29;20555;-82
2023/09/26 00:54:37;;;;;;;917.42;812.95;;;14.90;99.90;;;;;;4894248;29;20629;-81
2023/09/26 00:57:04;;;;;;;1070.47;877.72;;;15.00;99.90;;;;;;4893245;29;20577;-82
2023/09/26 00:59:31;;;;;;;1047.28;863.83;;;14.90;99.90;;;;;;4895048;29;20132;-82
2023/09/26 01:01:58;;;;;;;944.92;821.40;;;14.90;99.90;;;;;;4893391;29;20465;-82
2023/09/26 01:04:24;;;;;;;910.83;809.42;;;14.90;99.90;;;;;;4893439;29;20128;-82
2023/09/26 01:06:50;;;;;;;1125.18;893.67;;;14.80;99.90;;;;;;4877424;29;20172;-82
2023/09/26 01:09:17;;;;;;;883.35;784.60;;;14.90;99.90;;;;;;4878463;29;20068;-82
2023/09/26 01:11:43;;;;;;;975.72;830.38;;;14.80;99.90;;;;;;4877338;29;20036;-82
2023/09/26 01:14:09;;;;;;;861.63;769.25;;;14.80;99.90;;;;;;4894858;29;20051;-82
2023/09/26 01:16:35;;;;;;;1034.45;865.05;;;14.80;99.90;;;;;;4894472;29;20067;-82
2023/09/26 01:19:00;;;;;;;905.10;800.40;;;14.80;99.90;;;;;;4892810;29;20137;-82
2023/09/26 01:21:26;;;;;;;1023.60;855.90;;;14.80;99.90;;;;;;4893783;29;20059;-82
2023/09/26 01:23:58;;;;;;;971.63;837.00;;;14.80;99.90;;;;;;4892695;29;20568;-82
2023/09/26 01:26:24;;;;;;;872.95;776.35;;;14.70;99.90;;;;;;4877566;29;20049;-82
2023/09/26 01:28:50;;;;;;;1085.63;876.05;;;14.80;99.90;;;;;;4893343;29;20053;-82
2023/09/26 01:31:17;;;;;;;1087.50;880.42;;;14.70;99.90;;;;;;4876490;29;20059;-82
2023/09/26 01:33:42;;;;;;;1119.43;898.08;;;14.70;99.90;;;;;;4872220;29;20830;-81
2023/09/26 01:36:08;;;;;;;1010.25;848.47;;;14.70;99.90;;;;;;4873499;29;20048;-82
2023/09/26 01:38:34;;;;;;;1170.65;908.90;;;14.60;99.90;;;;;;4892866;29;20045;-82
2023/09/26 01:41:02;;;;;;;1137.13;901.55;;;14.60;99.90;;;;;;4892773;29;20084;-82
2023/09/26 01:43:28;;;;;;;929.88;811.90;;;14.60;99.90;;;;;;4893559;29;20801;-81
2023/09/26 01:45:55;;;;;;;1014.72;844.05;;;14.50;99.90;;;;;;4893046;29;20072;-82
2023/09/26 01:48:20;;;;;;;854.50;754.13;;;14.50;99.90;;;;;;4892987;29;20187;-82
2023/09/26 01:50:46;;;;;;;937.35;818.42;;;14.40;99.90;;;;;;4892676;29;20075;-82
2023/09/26 01:53:13;;;;;;;1114.47;877.03;;;14.40;99.90;;;;;;4892261;29;20048;-82
2023/09/26 01:55:40;;;;;;;1093.63;880.60;;;14.40;99.90;;;;;;4877230;29;20506;-81
2023/09/26 01:58:06;;;;;;;1003.13;838.75;;;14.30;99.90;;;;;;4893249;29;20533;-81
2023/09/26 02:00:32;;;;;;;1096.85;881.78;;;14.30;99.90;;;;;;4890989;29;20449;-82
2023/09/26 02:03:00;;;;;;;1164.90;911.40;;;14.20;99.90;;;;;;4892905;29;20068;-82
2023/09/26 02:05:26;;;;;;;1093.13;896.95;;;14.20;99.90;;;;;;4893879;29;20041;-81
2023/09/26 02:07:52;;;;;;;982.05;859.10;;;14.30;99.90;;;;;;4877041;29;20581;-82
2023/09/26 02:10:18;;;;;;;975.20;849.95;;;14.30;99.90;;;;;;4877137;29;20136;-82
2023/09/26 02:12:50;;;;;;;1083.97;898.97;;;14.30;99.90;;;;;;4892608;29;20049;-82
2023/09/26 02:15:16;;;;;;;1000.03;864.08;;;14.30;99.90;;;;;;4878577;29;20032;-82
2023/09/26 02:17:42;;;;;;;1007.67;873.72;;;14.30;99.90;;;;;;4892666;29;20413;-81
2023/09/26 02:20:14;;;;;;;1048.57;896.08;;;14.30;99.90;;;;;;4892110;29;20378;-81
2023/09/26 02:22:42;;;;;;;1052.85;893.45;;;14.30;99.90;;;;;;4892292;29;20061;-81
2023/09/26 02:25:10;;;;;;;1069.95;894.33;;;14.30;99.90;;;;;;4892483;29;20513;-81
2023/09/26 02:27:37;;;;;;;1047.80;892.40;;;14.30;99.90;;;;;;4892096;29;20107;-81
2023/09/26 02:30:08;;;;;;;1143.10;915.03;;;14.30;99.90;;;;;;4892021;29;20099;-82
2023/09/26 02:32:34;;;;;;;937.92;836.90;;;14.30;99.90;;;;;;4877138;29;20067;-81
2023/09/26 02:35:02;;;;;;;1047.28;878.95;;;14.30;99.90;;;;;;4882179;29;20057;-82
2023/09/26 02:37:27;;;;;;;1066.07;891.80;;;14.20;99.90;;;;;;4892351;29;20478;-82
2023/09/26 02:39:53;;;;;;;1052.45;869.10;;;14.20;99.90;;;;;;4873107;29;20088;-82
2023/09/26 02:42:19;;;;;;;1092.28;875.42;;;14.20;99.90;;;;;;4885041;29;20823;-82
2023/09/26 02:44:45;;;;;;;1096.60;889.15;;;14.10;99.90;;;;;;4891195;29;20048;-82
2023/09/26 02:47:10;;;;;;;1116.85;889.25;;;14.00;99.90;;;;;;4876947;29;20401;-82
2023/09/26 02:49:36;;;;;;;1002.28;853.55;;;14.00;99.90;;;;;;4891124;29;20051;-82
2023/09/26 02:52:02;;;;;;;1045.15;865.33;;;13.90;99.90;;;;;;4892168;29;20462;-82
2023/09/26 02:54:28;;;;;;;1099.82;890.45;;;13.90;99.90;;;;;;4891791;29;20536;-81
2023/09/26 02:56:54;;;;;;;975.38;812.67;;;13.90;99.90;;;;;;4875348;29;20484;-81
2023/09/26 02:59:19;;;;;;;987.47;824.97;;;13.80;99.90;;;;;;4891942;29;20064;-82
2023/09/26 03:01:45;;;;;;;1057.50;844.85;;;13.80;99.90;;;;;;4890747;29;20482;-82
2023/09/26 03:04:11;;;;;;;1061.63;845.22;;;13.80;99.90;;;;;;4875536;29;20155;-81
2023/09/26 03:06:36;;;;;;;1043.57;862.50;;;13.70;99.90;;;;;;4891481;29;20489;-82
2023/09/26 03:09:02;;;;;;;998.47;833.70;;;13.70;99.90;;;;;;4891694;29;20478;-82
2023/09/26 03:11:29;;;;;;;971.20;828.80;;;13.60;99.90;;;;;;4890884;29;20052;-82
2023/09/26 03:13:55;;;;;;;985.63;848.75;;;13.60;99.90;;;;;;4890422;29;20052;-82
2023/09/26 03:16:20;;;;;;;975.45;835.97;;;13.50;99.90;;;;;;4875232;29;20122;-82
2023/09/26 03:18:52;;;;;;;923.15;807.53;;;13.50;99.90;;;;;;4890540;29;20059;-82
2023/09/26 03:21:18;;;;;;;1006.08;840.60;;;13.50;99.90;;;;;;4891595;29;20158;-81
2023/09/26 03:23:43;;;;;;;948.95;818.33;;;13.40;99.90;;;;;;4871645;29;20147;-81
2023/09/26 03:26:10;;;;;;;1029.28;858.95;;;13.40;99.90;;;;;;4885396;29;20169;-82
2023/09/26 03:28:36;;;;;;;1020.38;866.78;;;13.30;99.90;;;;;;4891406;29;20048;-81
2023/09/26 03:31:06;;;;;;;995.92;866.67;;;13.30;99.90;;;;;;4874015;29;20112;-81
2023/09/26 03:33:32;;;;;;;889.35;793.75;;;13.30;99.90;;;;;;4887160;29;20532;-81
2023/09/26 03:35:59;;;;;;;1009.47;861.47;;;13.20;99.90;;;;;;4870654;29;20052;-82
2023/09/26 03:38:25;;;;;;;1074.00;890.13;;;13.20;99.90;;;;;;4875182;29;20130;-82
2023/09/26 03:41:00;;;;;;;1058.50;887.33;;;13.20;99.90;;;;;;4890272;29;20048;-82
2023/09/26 03:43:26;;;;;;;918.95;821.63;;;13.20;99.90;;;;;;4872329;29;20045;-82
2023/09/26 03:46:02;;;;;;;920.28;822.70;;;13.10;99.90;;;;;;4885346;29;20044;-81
2023/09/26 03:48:28;;;;;;;1002.47;868.95;;;13.10;99.90;;;;;;4863942;29;20127;-82
2023/09/26 03:50:54;;;;;;;926.83;827.58;;;13.10;99.90;;;;;;4872355;29;20481;-82
2023/09/26 03:53:20;;;;;;;1020.35;885.38;;;13.10;99.90;;;;;;4888980;29;20044;-82
2023/09/26 03:55:54;;;;;;;918.75;818.17;;;13.00;99.90;;;;;;4889181;29;20108;-82
2023/09/26 03:58:20;;;;;;;934.50;833.03;;;13.00;99.90;;;;;;4890813;29;20131;-82
2023/09/26 04:00:45;;;;;;;1022.25;885.05;;;13.00;99.90;;;;;;4871709;29;20139;-82
2023/09/26 04:03:11;;;;;;;1019.88;885.25;;;13.00;99.90;;;;;;4889422;29;20147;-82
2023/09/26 04:05:37;;;;;;;938.40;838.38;;;13.00;99.90;;;;;;4904025;29;20115;-82
2023/09/26 04:08:03;;;;;;;937.00;838.83;;;12.90;99.90;;;;;;4887418;29;20060;-83
2023/09/26 04:10:35;;;;;;;942.38;841.92;;;12.90;99.90;;;;;;4887830;29;20210;-82
2023/09/26 04:13:01;;;;;;;1069.72;901.65;;;12.90;99.90;;;;;;4889127;29;20123;-83
2023/09/26 04:15:27;;;;;;;1036.90;889.65;;;12.90;99.90;;;;;;4890245;29;20052;-82
2023/09/26 04:17:52;;;;;;;944.53;841.17;;;12.80;99.90;;;;;;4890952;29;20540;-82
2023/09/26 04:20:19;;;;;;;912.20;816.15;;;12.80;99.90;;;;;;4890153;29;20389;-82
2023/09/26 04:22:46;;;;;;;1031.60;891.22;;;12.80;99.90;;;;;;4874599;29;20044;-82
2023/09/26 04:25:12;;;;;;;1045.80;895.65;;;12.70;99.90;;;;;;4875115;29;20466;-82
2023/09/26 04:27:38;;;;;;;1052.57;894.97;;;12.70;99.90;;;;;;4889583;29;20044;-82
2023/09/26 04:30:06;;;;;;;1039.03;891.17;;;12.60;99.90;;;;;;4889799;29;20048;-82
2023/09/26 04:32:35;;;;;;;1026.97;885.13;;;12.60;99.90;;;;;;4875125;29;20503;-82
2023/09/26 04:35:01;;;;;;;1027.65;886.33;;;12.60;99.90;;;;;;4886786;29;20041;-82
2023/09/26 04:37:26;;;;;;;1051.00;900.22;;;12.60;99.90;;;;;;4883734;29;20096;-82
2023/09/26 04:39:52;;;;;;;990.10;873.80;;;12.60;99.90;;;;;;4889740;29;20075;-82
2023/09/26 04:42:18;;;;;;;1016.22;888.75;;;12.60;99.90;;;;;;4881934;29;20056;-82
2023/09/26 04:44:43;;;;;;;995.15;885.97;;;12.50;99.90;;;;;;4901986;29;20145;-83
2023/09/26 04:47:09;;;;;;;989.45;880.72;;;12.50;99.90;;;;;;4885477;29;20446;-82
2023/09/26 04:49:35;;;;;;;998.20;880.22;;;12.60;99.90;;;;;;4901934;29;20143;-83
2023/09/26 04:52:02;;;;;;;986.90;879.90;;;12.60;99.90;;;;;;4884107;29;20081;-82
2023/09/26 04:54:27;;;;;;;1031.00;894.95;;;12.70;99.90;;;;;;4890543;29;20037;-82
2023/09/26 04:56:53;;;;;;;1090.80;921.67;;;12.70;99.90;;;;;;4897743;29;20485;-82
2023/09/26 04:59:19;;;;;;;1063.47;912.03;;;12.70;99.90;;;;;;4886561;29;20068;-82
2023/09/26 05:01:45;;;;;;;999.95;889.40;;;12.70;99.90;;;;;;4886150;29;20502;-82
2023/09/26 05:04:11;;;;;;;1040.05;901.58;;;12.80;99.90;;;;;;4861185;29;20048;-82
2023/09/26 05:06:37;;;;;;;986.13;879.55;;;12.80;99.90;;;;;;4881450;29;20057;-82
2023/09/26 05:09:07;;;;;;;1058.13;901.60;;;12.80;99.90;;;;;;4878264;29;20124;-82
2023/09/26 05:11:33;;;;;;;984.60;878.97;;;12.90;99.90;;;;;;4883910;29;20101;-82
2023/09/26 05:14:00;;;;;;;979.00;875.65;;;12.90;99.90;;;;;;4873832;29;20487;-82
2023/09/26 05:16:26;;;;;;;962.58;861.33;;;12.90;99.90;;;;;;4887503;29;20084;-82
2023/09/26 05:18:52;;;;;;;1026.53;897.70;;;12.90;99.90;;;;;;4887836;29;20350;-82
2023/09/26 05:21:17;;;;;;;968.28;865.53;;;12.90;99.90;;;;;;4873195;29;20113;-82
2023/09/26 05:23:43;;;;;;;943.00;844.35;;;12.90;99.90;;;;;;4890466;29;20442;-82
2023/09/26 05:26:12;;;;;;;1014.03;894.95;;;12.80;99.90;;;;;;4886921;29;20052;-82
2023/09/26 05:28:39;;;;;;;950.00;848.53;;;12.80;99.90;;;;;;4889592;29;20135;-82
2023/09/26 05:31:05;;;;;;;938.05;839.60;;;12.80;99.90;;;;;;4859796;29;20081;-83
2023/09/26 05:33:31;;;;;;;931.15;831.85;;;12.70;99.90;;;;;;4885755;29;20061;-83
2023/09/26 05:35:57;;;;;;;902.50;811.50;;;12.70;99.90;;;;;;4868140;29;20112;-83
2023/09/26 05:38:25;;;;;;;994.38;884.60;;;12.60;99.90;;;;;;4864971;29;20057;-82
2023/09/26 05:40:51;;;;;;;998.10;887.65;;;12.60;99.90;;;;;;4874475;29;20144;-82
2023/09/26 05:43:17;;;;;;;1014.92;894.63;;;12.60;99.90;;;;;;4875719;29;20132;-83
2023/09/26 05:45:43;;;;;;;1012.30;893.28;;;12.60;99.90;;;;;;4875618;29;20037;-83
2023/09/26 05:48:08;;;;;;;1003.58;892.65;;;12.60;99.90;;;;;;4876353;29;20393;-81
2023/09/26 05:50:34;;;;;;;1030.60;889.10;;;12.60;99.90;;;;;;4896385;29;20052;-82
2023/09/26 05:53:00;;;;;;;918.92;823.58;;;12.60;99.90;;;;;;4889590;29;20062;-83
2023/09/26 05:55:26;;;;;;;1091.68;902.25;;;12.50;99.90;;;;;;4886116;29;20053;-83
2023/09/26 05:57:52;;;;;;;960.80;856.20;;;12.50;99.90;;;;;;4887210;29;20092;-82
2023/09/26 06:00:18;;;;;;;951.75;851.25;;;12.50;99.90;;;;;;4900263;29;20076;-81
2023/09/26 06:02:44;;;;;;;1009.83;877.85;;;12.50;99.90;;;;;;4876307;29;20124;-81
2023/09/26 06:05:13;;;;;;;1008.65;882.95;;;12.50;99.90;;;;;;4892149;29;20457;-82
2023/09/26 06:07:41;;;;;;;941.00;843.15;;;12.50;99.90;;;;;;4876563;29;20147;-81
2023/09/26 06:10:07;;;;;;;952.50;852.70;;;12.50;99.90;;;;;;4892529;29;20417;-81
2023/09/26 06:12:33;;;;;;;932.72;836.40;;;12.60;99.90;;;;;;4875911;29;20052;-81
2023/09/26 06:14:59;;;;;;;945.83;847.83;;;12.60;99.90;;;;;;4891486;29;20079;-82
2023/09/26 06:17:24;;;;;;;916.88;824.10;;;12.60;99.90;;;;;;4890932;29;20104;-82
2023/09/26 06:19:50;;;;;;;985.78;877.50;;;12.60;99.90;;;;;;4870098;29;20502;-82
2023/09/26 06:22:16;;;;;;;935.40;840.03;;;12.70;99.90;;;;;;4889115;29;20048;-82
2023/09/26 06:24:42;;;;;;;981.42;873.65;;;12.70;99.90;;;;;;4887796;29;20721;-82
2023/09/26 06:27:08;;;;;;;926.85;832.50;;;12.80;99.90;;;;;;4890221;29;20222;-82
2023/09/26 06:29:39;;;;;;;915.97;821.75;;;12.80;99.90;;;;;;4890783;29;20128;-82
2023/09/26 06:32:05;;;;;;;989.78;880.13;;;12.90;99.90;;;;;;4876551;29;20052;-82
2023/09/26 06:34:31;;;;;;;990.08;881.50;;;12.90;99.90;;;;;;4891469;29;20115;-81
2023/09/26 06:36:57;;;;;;;989.97;880.97;;;13.00;99.90;;;;;;4892052;29;20533;-82
2023/09/26 06:39:24;;;;;;;971.70;866.28;;;13.10;99.90;;;;;;4876671;29;20049;-81
2023/09/26 06:41:50;;;;;;;861.42;773.70;;;13.20;99.90;;;;;;4888502;29;20044;-82
2023/09/26 06:44:15;;;;;;;976.92;848.38;;;13.30;99.90;;;;;;4887171;29;20409;-82
2023/09/26 06:46:41;;;;;;;917.88;804.72;;;13.30;99.90;;;;;;4887898;29;20056;-81
2023/09/26 06:49:07;;;;;;;836.33;741.80;;;13.40;99.90;;;;;;4884781;29;20045;-82
2023/09/26 06:51:33;;;;;;;987.13;837.85;;;13.50;99.90;;;;;;4888950;29;20048;-82
2023/09/26 06:54:00;;;;;;;976.60;818.25;;;13.50;99.90;;;;;;4884230;29;20860;-82
2023/09/26 06:56:26;;;;;;;966.90;792.78;;;13.60;99.90;;;;;;4872073;29;20080;-83
2023/09/26 06:58:51;;;;;;;960.05;797.60;;;13.70;99.90;;;;;;4876001;29;20099;-81
2023/09/26 07:01:18;;;;;;;999.50;830.33;;;13.70;99.90;;;;;;4890943;29;20049;-83
2023/09/26 07:03:44;;;;;;;1050.32;859.75;;;13.80;99.90;;;;;;4875300;29;20052;-82
2023/09/26 07:06:12;;;;;;;1034.97;860.08;;;13.90;99.90;;;;;;4875846;29;20409;-80
2023/09/26 07:08:39;;;;;;;1062.65;858.25;;;13.90;99.90;;;;;;4890754;29;20056;-80
2023/09/26 07:11:05;;;;;;;1006.17;831.58;;;14.00;99.90;;;;;;4891509;29;20054;-81
2023/09/26 07:13:34;;;;;;;1037.13;838.50;;;14.10;99.90;;;;;;4868409;29;20045;-80
2023/09/26 07:16:01;;;;;;;1041.60;863.45;;;14.10;99.90;;;;;;4874019;29;20054;-80
2023/09/26 07:18:27;;;;;;;1071.32;873.10;;;14.20;99.90;;;;;;4876222;29;20127;-81
2023/09/26 07:20:53;;;;;;;1001.83;859.90;;;14.30;99.90;;;;;;4885470;29;20576;-80
2023/09/26 07:23:19;;;;;;;1080.07;888.28;;;14.30;99.90;;;;;;4889195;29;20080;-80
2023/09/26 07:25:45;;;;;;;1126.70;903.55;;;14.40;99.90;;;;;;4875552;29;20088;-80
2023/09/26 07:28:11;;;;;;;999.47;850.80;;;14.50;99.90;;;;;;4885501;29;20075;-80
2023/09/26 07:30:36;;;;;;;945.95;840.10;;;14.60;99.90;;;;;;4886738;29;20140;-81
2023/09/26 07:33:03;;;;;;;964.00;858.83;;;14.70;99.90;;;;;;4884555;29;20087;-81
2023/09/26 07:35:28;;;;;;;939.38;836.65;;;14.70;99.90;;;;;;4882719;29;20104;-80
2023/09/26 07:37:55;;;;;;;914.78;815.88;;;14.80;99.90;;;;;;4883660;29;20052;-81
2023/09/26 07:40:22;;;;;;;905.75;811.45;;;14.90;99.90;;;;;;4886843;29;20174;-81
2023/09/26 07:42:47;;;;;;;904.20;805.55;;;14.90;99.90;;;;;;4891761;29;20358;-85
2023/09/26 07:45:16;;;;;;;877.90;787.10;;;15.00;99.90;;;;;;4873697;29;20556;-81
2023/09/26 07:47:43;;;;;;;908.88;814.20;;;15.00;99.90;;;;;;4892022;29;20052;-81
2023/09/26 07:50:09;;;;;;;886.67;796.17;;;15.10;99.90;;;;;;4890396;29;20139;-81
2023/09/26 07:52:35;;;;;;;912.47;815.00;;;15.10;99.90;;;;;;4888972;29;20053;-81
2023/09/26 07:55:00;;;;;;;928.17;830.95;;;15.20;99.90;;;;;;4889989;29;20053;-81
2023/09/26 07:57:26;;;;;;;897.70;803.17;;;15.20;99.90;;;;;;4889810;29;20398;-81
2023/09/26 07:59:52;;;;;;;937.30;835.67;;;15.30;99.90;;;;;;4888181;29;20100;-81
2023/09/26 08:02:17;;;;;;;892.97;799.03;;;15.40;99.90;;;;;;4889044;29;20506;-81
2023/09/26 08:04:44;;;;;;;865.83;774.00;;;15.50;99.90;;;;;;4887911;29;20553;-81
2023/09/26 08:07:10;;;;;;;841.92;756.38;;;15.60;99.90;;;;;;4889230;29;20044;-81
2023/09/26 08:09:36;;;;;;;824.80;742.08;;;15.70;99.90;;;;;;4888495;29;20079;-81
2023/09/26 08:12:01;;;;;;;759.10;679.70;;;15.70;99.90;;;;;;4887919;29;20040;-81
2023/09/26 08:14:27;;;;;;;724.00;645.53;;;15.70;99.90;;;;;;4888203;29;20057;-82
2023/09/26 08:16:53;;;;;;;794.08;708.38;;;15.80;99.90;;;;;;4889816;29;20069;-81
2023/09/26 08:19:18;;;;;;;754.35;673.38;;;15.90;99.90;;;;;;4890126;29;20360;-81
2023/09/26 08:21:45;;;;;;;770.58;686.72;;;16.00;99.90;;;;;;4889630;29;20064;-81
2023/09/26 08:24:10;;;;;;;820.80;733.35;;;16.10;99.90;;;;;;4890842;29;20139;-81
2023/09/26 08:26:36;;;;;;;777.42;695.53;;;16.30;99.90;;;;;;4889918;29;20131;-81
2023/09/26 08:29:04;;;;;;;768.00;684.90;;;16.40;99.90;;;;;;4890351;29;20088;-81
2023/09/26 08:31:30;;;;;;;771.67;696.10;;;16.50;99.90;;;;;;4889721;29;20059;-81
2023/09/26 08:33:56;;;;;;;715.03;644.30;;;16.60;99.90;;;;;;4881714;29;20128;-81
2023/09/26 08:36:22;;;;;;;623.90;567.15;;;16.70;99.90;;;;;;4888450;29;20127;-81
2023/09/26 08:38:50;;;;;;;639.42;581.63;;;16.70;99.90;;;;;;4874298;29;20489;-81
2023/09/26 08:41:17;;;;;;;623.17;567.28;;;16.70;99.90;;;;;;4888998;29;20076;-81
2023/09/26 08:43:44;;;;;;;587.20;534.20;;;16.70;99.90;;;;;;4891498;29;20120;-81
2023/09/26 08:46:10;;;;;;;645.83;586.95;;;16.70;99.90;;;;;;4888969;29;20565;-82
2023/09/26 08:48:37;;;;;;;641.95;583.90;;;16.70;99.90;;;;;;4889711;29;20381;-81
2023/09/26 08:51:03;;;;;;;711.78;648.17;;;16.70;99.90;;;;;;4889635;29;20033;-81
2023/09/26 08:53:29;;;;;;;633.15;573.65;;;16.70;99.90;;;;;;4890336;29;20052;-81
2023/09/26 08:55:55;;;;;;;641.80;584.50;;;16.70;99.90;;;;;;4889765;29;20363;-81
2023/09/26 08:58:21;;;;;;;722.35;655.25;;;16.70;99.90;;;;;;4891645;29;20120;-81
2023/09/26 09:00:47;;;;;;;622.30;566.85;;;16.80;99.90;;;;;;4888781;29;20096;-81
2023/09/26 09:03:13;;;;;;;640.35;583.10;;;16.80;99.90;;;;;;4888779;29;20069;-81
2023/09/26 09:05:40;;;;;;;622.75;567.50;;;16.80;99.90;;;;;;4889692;29;20135;-81
2023/09/26 09:08:08;;;;;;;699.38;636.65;;;16.90;99.90;;;;;;4873832;29;20123;-81
2023/09/26 09:10:53;;;;;;;677.08;617.40;;;16.90;99.90;;;;;;4885732;29;20049;-81
2023/09/26 09:13:27;;;;;;;617.22;562.97;;;17.00;99.90;;;;;;4889873;29;20052;-81
2023/09/26 09:16:07;;;;;;;708.55;643.63;;;17.10;99.90;;;;;;4876153;29;20053;-81
2023/09/26 09:18:33;;;;;;;608.70;552.65;;;17.20;99.90;;;;;;4893514;29;20059;-81
2023/09/26 09:20:59;;;;;;;654.33;594.97;;;17.30;99.90;;;;;;4893344;29;20389;-81
2023/09/26 09:23:24;;;;;;;592.38;539.95;;;17.40;99.90;;;;;;4891967;29;20084;-81
2023/09/26 09:25:51;;;;;;;692.15;628.42;;;17.60;99.90;;;;;;4894614;29;20053;-81
2023/09/26 09:28:20;;;;;;;715.85;648.53;;;17.70;99.90;;;;;;4874475;29;20045;-82
2023/09/26 09:30:46;;;;;;;681.10;617.45;;;17.90;99.90;;;;;;4884389;29;20092;-81
2023/09/26 09:33:16;;;;;;;557.03;508.42;;;18.10;99.90;;;;;;4877258;29;20044;-81
2023/09/26 09:35:43;;;;;;;516.17;473.50;;;18.20;99.90;;;;;;4893203;29;20112;-81
2023/09/26 09:38:12;;;;;;;536.85;491.75;;;18.20;99.90;;;;;;4892435;29;20533;-81
2023/09/26 09:40:38;;;;;;;451.50;414.77;;;18.20;99.90;;;;;;4892883;29;20385;-81
2023/09/26 09:43:04;;;;;;;468.40;431.20;;;18.10;99.90;;;;;;4877762;29;20469;-82
2023/09/26 09:45:34;;;;;;;561.28;512.58;;;18.20;99.90;;;;;;4891750;29;20148;-81
2023/09/26 09:48:03;;;;;;;555.95;507.08;;;18.20;99.90;;;;;;4892611;29;20068;-82
2023/09/26 09:50:32;;;;;;;575.50;524.35;;;18.40;99.90;;;;;;4891887;29;20143;-82
2023/09/26 09:53:01;;;;;;;504.80;461.98;;;18.60;99.90;;;;;;4863491;29;20704;-81
2023/09/26 09:55:37;;;;;;;528.80;481.60;;;18.80;99.90;;;;;;4872003;29;20057;-81
2023/09/26 09:58:09;;;;;;;608.88;552.85;;;19.00;99.90;;;;;;4892515;29;20084;-82
2023/09/26 10:00:40;;;;;;;575.30;525.70;;;19.10;99.90;;;;;;4876730;29;20515;-82
2023/09/26 10:03:06;;;;;;;554.42;506.63;;;19.20;99.90;;;;;;4892599;29;20466;-82
2023/09/26 10:05:34;;;;;;;605.13;552.10;;;19.40;99.90;;;;;;4876651;29;20461;-82
2023/09/26 10:08:02;;;;;;;566.72;519.53;;;19.50;99.90;;;;;;4892493;29;20414;-82
2023/09/26 10:10:29;;;;;;;562.78;515.28;;;19.50;99.90;;;;;;4877146;29;20046;-82
2023/09/26 10:12:55;;;;;;;612.90;559.72;;;19.60;99.90;;;;;;4891870;29;20076;-82
2023/09/26 10:15:21;;;;;;;601.55;549.97;;;19.60;99.90;;;;;;4891852;29;20091;-82
2023/09/26 10:17:48;;;;;;;607.28;555.33;;;19.60;99.90;;;;;;4892923;29;20115;-82
2023/09/26 10:20:15;;;;;;;713.75;649.05;;;19.70;99.90;;;;;;4891539;29;20128;-82
2023/09/26 10:22:43;;;;;;;623.65;569.90;;;19.70;99.90;;;;;;4892387;29;20064;-82
2023/09/26 10:25:15;;;;;;;602.00;550.42;;;19.60;99.90;;;;;;4892000;29;20067;-82
2023/09/26 10:27:46;;;;;;;628.30;575.05;;;19.60;99.90;;;;;;4876072;29;20044;-82
2023/09/26 10:30:17;;;;;;;592.15;542.45;;;19.70;99.90;;;;;;4873487;29;20052;-82
2023/09/26 10:32:43;;;;;;;602.75;551.92;;;19.70;99.90;;;;;;4885827;29;20045;-82
2023/09/26 10:35:15;;;;;;;624.80;570.17;;;19.70;99.90;;;;;;4883393;29;20041;-82
2023/09/26 10:37:44;;;;;;;599.53;547.30;;;19.80;99.90;;;;;;4875635;29;20063;-82
2023/09/26 10:40:14;;;;;;;594.33;541.13;;;19.80;99.90;;;;;;4876026;29;20095;-82
2023/09/26 10:42:44;;;;;;;624.72;571.15;;;19.90;99.90;;;;;;4875243;29;20057;-82
2023/09/26 10:45:11;;;;;;;606.15;549.42;;;19.90;99.90;;;;;;4874575;29;20254;-81
2023/09/26 10:47:39;;;;;;;634.47;580.10;;;19.90;99.90;;;;;;4892490;29;20118;-80
2023/09/26 10:50:13;;;;;;;621.10;562.17;;;20.00;99.90;;;;;;4881012;29;20108;-81
2023/09/26 10:52:46;;;;;;;661.22;602.47;;;20.00;99.90;;;;;;4891723;29;20052;-81
2023/09/26 10:55:22;;;;;;;615.92;560.65;;;20.00;99.90;;;;;;4890884;29;20052;-81
2023/09/26 10:57:51;;;;;;;625.97;571.92;;;20.00;99.90;;;;;;4884846;29;20040;-83
2023/09/26 11:00:17;;;;;;;616.80;555.72;;;20.00;99.90;;;;;;4864187;29;20412;-83
2023/09/26 11:02:46;;;;;;;603.08;549.42;;;20.10;99.90;;;;;;4875309;29;20056;-84
2023/09/26 11:05:13;;;;;;;611.03;558.63;;;20.20;99.90;;;;;;4868025;29;20048;-84
2023/09/26 11:07:41;;;;;;;640.75;572.83;;;20.20;99.90;;;;;;4875373;29;20045;-83
2023/09/26 11:10:12;;;;;;;678.50;606.15;;;20.20;99.90;;;;;;4875322;29;20072;-84
2023/09/26 11:12:38;;;;;;;600.58;538.85;;;20.20;99.90;;;;;;4861332;29;20389;-84
2023/09/26 11:15:04;;;;;;;614.90;555.67;;;20.30;99.90;;;;;;4865547;29;20041;-83
2023/09/26 11:17:32;;;;;;;624.28;557.72;;;20.30;99.90;;;;;;4874282;29;20044;-83
2023/09/26 11:19:59;;;;;;;586.40;533.65;;;20.30;99.90;;;;;;4903378;29;20132;-83
2023/09/26 11:22:26;;;;;;;563.40;511.23;;;20.30;99.90;;;;;;4880869;29;20049;-83
2023/09/26 11:25:08;;;;;;;624.03;557.83;;;20.30;99.90;;;;;;4896302;29;20145;-83
2023/09/26 11:27:41;;;;;;;644.90;585.85;;;20.30;99.90;;;;;;4873465;29;20458;-84
2023/09/26 11:30:10;;;;;;;555.30;499.63;;;20.30;99.90;;;;;;4875003;29;20084;-84
2023/09/26 11:32:35;;;;;;;619.45;565.80;;;20.30;99.90;;;;;;4883745;29;20476;-84
2023/09/26 11:35:03;;;;;;;583.28;526.42;;;20.30;99.90;;;;;;4898022;29;20045;-87
2023/09/26 11:37:32;;;;;;;645.10;580.42;;;20.30;99.90;;;;;;4868983;29;20140;-84
2023/09/26 11:39:58;;;;;;;581.25;527.50;;;20.30;99.90;;;;;;4870322;29;20077;-85
2023/09/26 11:42:23;;;;;;;572.10;517.00;;;20.20;99.90;;;;;;4868908;29;20044;-87
2023/09/26 11:44:54;;;;;;;596.42;543.83;;;20.20;99.90;;;;;;4872233;29;20143;-86
2023/09/26 11:47:21;;;;;;;617.47;564.00;;;20.10;99.90;;;;;;4875608;29;20049;-86
2023/09/26 11:49:48;;;;;;;515.92;468.27;;;20.20;99.90;;;;;;4890970;29;20044;-84
2023/09/26 11:52:14;;;;;;;602.47;549.08;;;20.20;99.90;;;;;;4882969;29;20409;-85
2023/09/26 11:54:40;;;;;;;597.42;545.03;;;20.20;99.90;;;;;;4886535;29;20056;-87
2023/09/26 11:57:06;;;;;;;611.33;555.78;;;20.20;99.90;;;;;;4875695;29;20049;-87
2023/09/26 11:59:32;;;;;;;593.70;541.67;;;20.20;99.90;;;;;;4874414;29;20493;-88
2023/09/26 12:02:00;;;;;;;575.17;520.47;;;20.20;99.90;;;;;;4870804;29;20063;-87
2023/09/26 12:04:26;;;;;;;600.22;542.10;;;20.30;99.90;;;;;;4866605;29;20051;-88